Time;durP1;ratioP1;P1;durP2;ratioP2;P2;SDS_P1;SDS_P2;PMS_P1;PMS_P2;Temp;Humidity;BMP_temperature;BMP_pressure;BME280_temperature;BME280_humidity;BME280_pressure;Samples;Min_cycle;Max_cycle;Signal;HPM_P1;HPM_P2
2023/07/13 00:01:39;;;;;;;3.17;1.70;;;;;;;20.26;47.36;97222.50;6017840;23;20007;-79
2023/07/13 00:04:04;;;;;;;2.40;1.33;;;;;;;20.09;47.33;97219.81;6008674;23;20003;-79
2023/07/13 00:06:32;;;;;;;1.48;1.33;;;;;;;19.89;48.19;97221.88;6017404;23;20015;-79
2023/07/13 00:08:59;;;;;;;1.73;1.20;;;;;;;19.85;49.08;97226.22;5946589;23;20098;-79
2023/07/13 00:11:24;;;;;;;2.45;1.52;;;;;;;19.75;49.37;97221.19;6044259;23;20673;-80
2023/07/13 00:13:50;;;;;;;1.92;1.48;;;;;;;19.60;49.44;97231.03;6008302;23;20009;-79
2023/07/13 00:16:16;;;;;;;2.10;1.45;;;;;;;19.44;49.51;97225.31;6009343;23;20778;-79
2023/07/13 00:18:42;;;;;;;2.97;1.73;;;;;;;19.32;49.90;97232.25;6008171;23;20016;-79
2023/07/13 00:21:07;;;;;;;1.88;1.65;;;;;;;19.31;50.55;97236.72;6041362;23;20003;-79
2023/07/13 00:23:38;;;;;;;3.17;1.48;;;;;;;19.37;50.56;97229.47;6031456;23;20003;-79
2023/07/13 00:26:05;;;;;;;1.85;1.38;;;;;;;19.35;50.77;97231.66;6038005;23;20171;-79
2023/07/13 00:28:31;;;;;;;3.03;1.42;;;;;;;19.35;51.22;97236.94;6035737;23;20140;-79
2023/07/13 00:30:57;;;;;;;1.75;1.40;;;;;;;19.32;51.08;97240.16;6037105;23;20655;-79
2023/07/13 00:33:22;;;;;;;2.80;1.50;;;;;;;19.15;51.57;97233.66;5978214;23;20739;-78
2023/07/13 00:35:48;;;;;;;2.65;2.10;;;;;;;19.03;51.73;97242.09;6037740;23;20604;-79
2023/07/13 00:38:14;;;;;;;2.17;1.60;;;;;;;18.93;52.45;97241.53;6003233;23;20467;-79
2023/07/13 00:40:39;;;;;;;2.58;1.45;;;;;;;18.84;51.99;97250.16;6037480;23;20180;-79
2023/07/13 00:43:17;;;;;;;2.08;1.40;;;;;;;18.75;52.62;97244.00;6002120;23;20577;-80
2023/07/13 00:45:42;;;;;;;2.08;1.15;;;;;;;18.67;53.06;97253.34;6037273;23;20179;-80
2023/07/13 00:48:11;;;;;;;2.05;1.88;;;;;;;18.63;52.81;97233.16;5905472;23;20203;-79
2023/07/13 00:50:37;;;;;;;4.85;1.40;;;;;;;18.57;53.42;97237.75;6002401;23;20176;-79
2023/07/13 00:53:03;;;;;;;1.73;1.50;;;;;;;18.55;53.49;97247.03;6037106;23;20300;-79
2023/07/13 00:55:28;;;;;;;2.42;1.40;;;;;;;18.55;54.71;97273.41;5979843;23;20243;-79
2023/07/13 00:57:54;;;;;;;3.20;1.60;;;;;;;18.43;54.17;97252.78;5975706;23;20269;-79
2023/07/13 01:02:51;;;;;;;3.83;1.83;;;;;;;18.35;54.17;97251.59;5934926;23;20190;-82
2023/07/13 01:05:19;;;;;;;2.63;1.40;;;;;;;18.19;54.58;97234.53;6069464;23;20190;-82
2023/07/13 01:07:45;;;;;;;1.67;1.50;;;;;;;17.92;54.65;97217.63;6032535;23;20183;-82
2023/07/13 01:10:14;;;;;;;1.30;1.20;;;;;;;17.85;54.57;97209.28;5887838;23;20682;-82
2023/07/13 01:12:40;;;;;;;2.83;1.30;;;;;;;17.99;54.55;97241.72;5931253;23;20202;-82
2023/07/13 01:15:42;;;;;;;1.75;1.35;;;;;;;18.08;54.95;97240.00;5912965;23;20174;-82
2023/07/13 01:18:10;;;;;;;1.55;1.45;;;;;;;17.60;56.14;97212.06;5913914;23;20317;-82
2023/07/13 01:20:36;;;;;;;3.25;1.35;;;;;;;17.71;56.41;97252.16;6036612;23;20166;-82
2023/07/13 01:23:07;;;;;;;1.83;1.48;;;;;;;17.44;56.87;97223.13;6068727;23;20189;-82
2023/07/13 01:25:35;;;;;;;2.10;1.27;;;;;;;17.23;57.52;97240.00;5912253;23;20177;-82
2023/07/13 01:28:01;;;;;;;1.48;1.33;;;;;;;17.03;59.40;97222.69;5952165;23;20003;-82
2023/07/13 01:30:26;;;;;;;1.83;1.60;;;;;;;17.14;60.03;97249.63;5919665;23;20739;-80
2023/07/13 01:32:52;;;;;;;3.10;1.55;;;;;;;17.00;60.26;97244.28;6043176;23;20118;-82
2023/07/13 01:35:17;;;;;;;2.25;1.85;;;;;;;17.01;59.42;97240.56;5943321;23;20362;-81
2023/07/13 01:37:44;;;;;;;3.38;1.90;;;;;;;16.85;59.67;97213.69;6078165;23;20010;-82
2023/07/13 01:40:11;;;;;;;2.17;1.48;;;;;;;16.89;59.98;97231.53;5975980;23;20007;-81
2023/07/13 01:42:41;;;;;;;4.50;2.00;;;;;;;16.99;61.33;97255.09;5921276;23;20007;-82
2023/07/13 01:45:06;;;;;;;1.70;1.33;;;;;;;16.99;59.50;97252.44;6042481;23;20003;-82
2023/07/13 01:47:32;;;;;;;2.58;1.52;;;;;;;16.96;59.33;97237.22;5917251;23;20380;-83
2023/07/13 01:49:57;;;;;;;2.83;1.50;;;;;;;17.04;59.04;97255.00;6050667;23;20000;-83
2023/07/13 01:52:23;;;;;;;1.75;1.55;;;;;;;16.80;59.68;97232.16;6042136;23;20038;-82
2023/07/13 01:54:48;;;;;;;1.90;1.52;;;;;;;16.69;59.59;97216.78;5918840;23;20026;-81
2023/07/13 01:57:14;;;;;;;2.13;1.52;;;;;;;16.83;60.04;97238.69;5941408;23;20026;-83
2023/07/13 01:59:39;;;;;;;4.40;1.90;;;;;;;16.91;61.83;97255.72;5942741;23;20031;-83
2023/07/13 02:02:05;;;;;;;1.95;1.55;;;;;;;16.88;60.46;97256.28;6062813;23;20647;-83
2023/07/13 02:04:30;;;;;;;2.90;1.70;;;;;;;16.97;61.08;97250.09;5948054;23;20007;-82
2023/07/13 02:06:56;;;;;;;2.97;1.48;;;;;;;16.98;59.89;97246.41;5980503;23;20254;-83
2023/07/13 02:09:22;;;;;;;2.28;2.00;;;;;;;16.93;60.31;97235.97;6105194;23;20006;-82
2023/07/13 02:11:48;;;;;;;2.10;1.65;;;;;;;16.92;60.66;97231.75;6078338;23;20778;-82
2023/07/13 02:14:15;;;;;;;1.60;1.50;;;;;;;17.06;60.03;97257.38;6040750;23;20098;-82
2023/07/13 02:16:41;;;;;;;1.40;1.30;;;;;;;17.02;60.51;97252.66;6066364;23;20014;-81
2023/07/13 02:19:06;;;;;;;2.10;1.50;;;;;;;16.77;59.82;97216.16;5922866;23;20060;-84
2023/07/13 02:21:31;;;;;;;3.05;1.70;;;;;;;16.99;60.33;97252.44;5946761;23;20567;-82
2023/07/13 02:23:57;;;;;;;2.53;1.50;;;;;;;16.93;60.26;97233.34;6042613;23;20252;-83
2023/07/13 02:26:23;;;;;;;2.95;2.25;;;;;;;16.99;60.26;97244.56;5925297;23;20252;-82
2023/07/13 02:28:48;;;;;;;3.10;1.65;;;;;;;16.90;60.74;97223.38;6081713;23;20679;-82
2023/07/13 02:31:15;;;;;;;1.67;1.55;;;;;;;16.85;60.70;97221.59;6061718;23;20605;-82
2023/07/13 02:33:41;;;;;;;3.22;1.90;;;;;;;16.82;61.17;97234.50;5962192;23;20159;-82
2023/07/13 02:36:07;;;;;;;3.13;1.70;;;;;;;16.99;60.86;97253.22;5939288;23;20580;-83
2023/07/13 02:38:34;;;;;;;2.92;1.90;;;;;;;16.84;60.91;97235.00;5968724;23;20018;-82
2023/07/13 02:41:01;;;;;;;1.77;1.65;;;;;;;16.88;60.98;97245.75;5972542;23;20622;-82
2023/07/13 02:43:27;;;;;;;2.53;1.55;;;;;;;17.11;60.51;97255.44;5973797;23;20014;-82
2023/07/13 02:45:52;;;;;;;2.40;1.85;;;;;;;17.22;60.19;97248.16;5949263;23;20011;-83
2023/07/13 02:48:18;;;;;;;1.70;1.40;;;;;;;17.10;60.55;97227.59;6073262;23;20815;-82
2023/07/13 02:50:47;;;;;;;1.85;1.60;;;;;;;17.33;59.58;97243.56;5949607;23;20014;-83
2023/07/13 02:53:12;;;;;;;2.75;2.55;;;;;;;17.10;61.64;97219.69;6057757;23;20082;-82
2023/07/13 02:55:39;;;;;;;2.78;1.77;;;;;;;17.17;61.42;97217.47;5925361;23;20034;-81
2023/07/13 02:58:05;;;;;;;3.00;1.90;;;;;;;17.26;61.65;97246.56;5947051;23;20794;-82
2023/07/13 03:00:31;;;;;;;2.75;1.90;;;;;;;17.08;61.20;97224.44;6069475;23;20015;-82
2023/07/13 03:02:57;;;;;;;2.65;1.83;;;;;;;17.26;61.11;97254.44;6081216;23;20102;-82
2023/07/13 03:05:23;;;;;;;2.38;1.55;;;;;;;17.21;61.53;97254.53;5982160;23;20006;-83
2023/07/13 03:07:48;;;;;;;3.50;1.77;;;;;;;17.26;60.49;97254.44;6082399;23;20082;-82
2023/07/13 03:10:14;;;;;;;1.90;1.73;;;;;;;17.24;60.40;97232.91;6081816;23;20025;-83
2023/07/13 03:12:39;;;;;;;3.70;1.83;;;;;;;17.36;60.28;97235.09;5949334;23;20003;-82
2023/07/13 03:15:05;;;;;;;1.52;1.40;;;;;;;17.20;60.38;97216.91;6071615;23;20003;-83
2023/07/13 03:17:30;;;;;;;3.28;2.00;;;;;;;17.29;60.74;97255.72;5972456;23;20003;-83
2023/07/13 03:19:57;;;;;;;2.58;1.90;;;;;;;16.99;61.08;97234.81;6048194;23;20003;-82
2023/07/13 03:22:22;;;;;;;3.53;1.48;;;;;;;17.13;60.37;97231.47;6045424;23;20011;-81
2023/07/13 03:24:48;;;;;;;4.93;1.88;;;;;;;17.13;60.44;97226.22;5955349;23;20014;-84
2023/07/13 03:27:15;;;;;;;1.67;1.58;;;;;;;17.44;59.86;97257.34;5946773;23;20014;-83
2023/07/13 03:29:41;;;;;;;1.55;1.45;;;;;;;17.23;60.18;97233.97;6071206;23;20094;-82
2023/07/13 03:32:06;;;;;;;3.88;1.92;;;;;;;17.32;60.09;97247.25;5924724;23;20390;-84
2023/07/13 03:34:32;;;;;;;3.45;1.70;;;;;;;17.36;60.42;97264.81;5949810;23;20312;-82
2023/07/13 03:36:58;;;;;;;3.40;1.98;;;;;;;17.17;60.43;97237.72;5949515;23;20076;-82
2023/07/13 03:39:23;;;;;;;2.33;1.80;;;;;;;17.22;60.56;97256.88;5981434;23;20444;-82
2023/07/13 03:41:49;;;;;;;1.75;1.65;;;;;;;17.18;60.78;97258.50;5971227;23;20019;-83
2023/07/13 03:44:16;;;;;;;2.55;1.60;;;;;;;17.20;59.14;97247.69;6047435;23;20017;-82
2023/07/13 03:46:42;;;;;;;2.28;1.65;;;;;;;17.21;60.07;97257.16;5926201;23;20090;-83
2023/07/13 03:49:09;;;;;;;1.88;1.55;;;;;;;17.35;59.75;97276.41;5926331;23;20051;-81
2023/07/13 03:51:35;;;;;;;2.53;1.85;;;;;;;17.35;59.16;97273.00;6072774;23;20038;-82
2023/07/13 03:54:00;;;;;;;3.15;1.67;;;;;;;17.15;60.36;97253.81;6048123;23;20061;-82
2023/07/13 03:56:26;;;;;;;1.80;1.70;;;;;;;17.10;60.69;97258.34;6048551;23;20010;-82
2023/07/13 03:58:52;;;;;;;6.10;2.30;;;;;;;17.26;60.34;97278.13;5924961;23;20073;-82
2023/07/13 04:01:19;;;;;;;2.65;1.75;;;;;;;17.23;60.52;97278.69;6076110;23;20619;-82
2023/07/13 04:03:46;;;;;;;2.22;1.80;;;;;;;17.16;60.99;97284.31;6072495;23;20010;-81
2023/07/13 04:06:23;;;;;;;1.77;1.38;;;;;;;17.20;60.26;97289.78;5957978;23;20728;-83
2023/07/13 04:08:53;;;;;;;2.20;1.73;;;;;;;17.09;61.32;97277.84;5959064;23;20017;-83
2023/07/13 04:11:21;;;;;;;2.72;1.77;;;;;;;17.06;61.56;97273.91;5957071;23;20672;-81
2023/07/13 04:13:47;;;;;;;2.47;1.55;;;;;;;17.06;62.53;97278.41;5973084;23;20676;-83
2023/07/13 04:16:14;;;;;;;1.80;1.70;;;;;;;17.09;61.36;97272.59;5981018;23;20002;-83
2023/07/13 04:18:39;;;;;;;3.13;1.40;;;;;;;17.14;61.16;97277.78;5972795;23;20146;-81
2023/07/13 04:21:04;;;;;;;2.63;2.08;;;;;;;17.10;60.60;97272.31;6070806;23;20023;-83
2023/07/13 04:23:30;;;;;;;2.92;1.60;;;;;;;17.16;59.81;97279.03;5948863;23;20014;-83
2023/07/13 04:25:56;;;;;;;2.63;1.70;;;;;;;17.17;60.81;97282.44;5980037;23;20010;-81
2023/07/13 04:28:22;;;;;;;2.53;1.88;;;;;;;17.13;61.45;97289.34;5948485;23;20448;-82
2023/07/13 04:30:48;;;;;;;2.72;1.70;;;;;;;17.11;60.98;97291.50;5945382;23;20061;-82
2023/07/13 04:33:14;;;;;;;1.67;1.55;;;;;;;17.11;61.43;97299.38;5947749;23;20590;-82
2023/07/13 04:35:39;;;;;;;2.13;1.80;;;;;;;17.13;61.28;97292.00;6105078;23;20022;-82
2023/07/13 04:38:05;;;;;;;2.53;1.70;;;;;;;17.21;60.67;97296.63;5971878;23;20094;-82
2023/07/13 04:40:31;;;;;;;4.05;1.90;;;;;;;17.31;60.33;97288.59;6045020;23;20303;-83
2023/07/13 04:42:56;;;;;;;2.13;1.92;;;;;;;17.40;60.32;97299.25;6047596;23;20236;-81
2023/07/13 04:45:24;;;;;;;2.13;1.92;;;;;;;17.46;60.12;97298.13;6079694;23;20619;-83
2023/07/13 04:47:49;;;;;;;2.70;1.95;;;;;;;17.51;60.22;97299.88;5957152;23;20104;-81
2023/07/13 04:50:22;;;;;;;4.03;1.92;;;;;;;17.50;60.24;97293.06;6071024;23;20007;-83
2023/07/13 04:52:49;;;;;;;2.33;2.13;;;;;;;17.58;60.06;97302.94;5949632;23;20758;-81
2023/07/13 04:55:15;;;;;;;3.33;2.00;;;;;;;17.71;59.87;97304.84;5981886;23;20106;-81
2023/07/13 04:57:40;;;;;;;2.60;2.10;;;;;;;17.80;59.81;97307.59;6074939;23;20010;-82
2023/07/13 05:00:07;;;;;;;2.63;2.25;;;;;;;17.95;60.02;97314.50;6107287;23;20009;-83
2023/07/13 05:02:37;;;;;;;2.20;2.00;;;;;;;17.99;59.87;97306.81;6045909;23;20751;-82
2023/07/13 05:05:03;;;;;;;2.55;2.00;;;;;;;18.05;59.47;97303.03;5958298;23;20328;-83
2023/07/13 05:07:29;;;;;;;2.97;1.90;;;;;;;18.05;59.15;97311.72;6048520;23;20311;-82
2023/07/13 05:09:54;;;;;;;3.47;2.00;;;;;;;18.13;59.12;97316.31;6074307;23;20010;-82
2023/07/13 05:12:22;;;;;;;2.88;2.08;;;;;;;18.20;59.10;97320.41;5976649;23;20068;-82
2023/07/13 05:14:49;;;;;;;2.72;1.95;;;;;;;18.22;58.56;97313.78;6086958;23;20011;-84
2023/07/13 05:17:14;;;;;;;2.03;1.80;;;;;;;18.32;56.70;97326.03;5975102;23;20006;-83
2023/07/13 05:19:39;;;;;;;2.60;2.40;;;;;;;18.42;57.07;97327.69;6051634;23;20014;-82
2023/07/13 05:22:05;;;;;;;2.17;1.90;;;;;;;18.50;57.55;97319.88;5976126;23;20363;-81
2023/07/13 05:24:30;;;;;;;1.88;1.75;;;;;;;18.60;56.58;97318.13;6085350;23;20006;-82
2023/07/13 05:26:56;;;;;;;2.38;1.63;;;;;;;18.60;56.04;97310.22;5976346;23;20021;-82
2023/07/13 05:29:22;;;;;;;2.80;1.60;;;;;;;18.63;56.00;97318.34;6052563;23;20038;-82
2023/07/13 05:31:48;;;;;;;2.13;1.90;;;;;;;18.68;55.79;97320.88;5992973;23;20043;-82
2023/07/13 05:34:13;;;;;;;2.88;1.98;;;;;;;18.75;55.81;97323.13;5970139;23;20235;-82
2023/07/13 05:36:39;;;;;;;2.15;1.80;;;;;;;19.15;54.61;97328.66;6087517;23;20350;-83
2023/07/13 05:39:04;;;;;;;3.03;1.67;;;;;;;19.32;54.18;97329.91;5998438;23;20204;-82
2023/07/13 05:41:30;;;;;;;2.60;1.90;;;;;;;19.42;54.19;97329.69;6098362;23;20055;-83
2023/07/13 05:43:55;;;;;;;1.77;1.65;;;;;;;19.55;53.45;97331.53;6124547;23;20046;-81
2023/07/13 05:46:21;;;;;;;2.30;1.80;;;;;;;19.62;52.99;97334.53;5974630;23;20102;-82
2023/07/13 05:48:47;;;;;;;2.88;1.70;;;;;;;19.73;52.74;97332.44;5991566;23;20010;-82
2023/07/13 05:51:13;;;;;;;3.25;2.00;;;;;;;19.85;52.55;97339.84;6001684;23;20300;-81
2023/07/13 05:53:39;;;;;;;3.05;2.00;;;;;;;19.99;52.37;97340.56;6123114;23;19999;-84
2023/07/13 05:56:04;;;;;;;2.00;1.80;;;;;;;20.05;52.00;97345.72;6092062;23;20002;-81
2023/07/13 05:58:30;;;;;;;2.78;1.80;;;;;;;20.16;52.03;97344.41;6068163;23;19991;-82
2023/07/13 06:01:05;;;;;;;1.85;1.75;;;;;;;20.34;51.86;97351.34;5942704;23;20034;-82
2023/07/13 06:03:31;;;;;;;2.40;1.58;;;;;;;20.36;51.27;97354.47;6092372;23;20070;-82
2023/07/13 06:05:57;;;;;;;2.03;1.52;;;;;;;20.47;50.47;97351.56;5968681;23;20003;-82
2023/07/13 06:08:22;;;;;;;2.80;1.85;;;;;;;20.58;50.17;97355.50;6128543;23;20435;-83
2023/07/13 06:10:48;;;;;;;2.58;1.48;;;;;;;20.74;48.96;97347.97;6068387;23;20076;-82
2023/07/13 06:13:13;;;;;;;2.67;1.70;;;;;;;20.93;48.22;97358.28;6068009;23;20002;-81
2023/07/13 06:15:38;;;;;;;2.42;1.50;;;;;;;21.05;47.79;97358.47;6065925;23;20500;-81
2023/07/13 06:18:04;;;;;;;2.00;1.33;;;;;;;21.29;47.70;97362.59;6093548;23;20328;-81
2023/07/13 06:20:30;;;;;;;1.80;1.30;;;;;;;21.39;47.67;97366.81;6102420;23;20021;-82
2023/07/13 06:22:55;;;;;;;1.60;1.50;;;;;;;21.59;47.29;97376.03;6067302;23;20002;-81
2023/07/13 06:25:20;;;;;;;2.17;1.65;;;;;;;21.71;46.31;97368.22;5977978;23;20017;-82
2023/07/13 06:27:46;;;;;;;2.38;1.60;;;;;;;21.90;45.89;97367.94;6093854;23;20014;-81
2023/07/13 06:30:12;;;;;;;2.03;1.20;;;;;;;22.03;45.30;97368.84;6092080;23;19995;-81
2023/07/13 06:32:37;;;;;;;1.67;1.38;;;;;;;22.16;44.19;97377.75;6000514;23;20022;-81
2023/07/13 06:35:03;;;;;;;2.95;1.52;;;;;;;22.31;44.26;97368.50;6069125;23;20079;-82
2023/07/13 06:37:29;;;;;;;2.75;1.30;;;;;;;22.52;44.00;97373.94;5989629;23;20417;-82
2023/07/13 06:39:54;;;;;;;1.83;1.73;;;;;;;22.59;43.30;97369.69;6063419;23;20069;-82
2023/07/13 06:42:20;;;;;;;1.90;1.40;;;;;;;22.74;44.25;97370.22;5999391;23;20053;-82
2023/07/13 06:44:45;;;;;;;1.65;1.30;;;;;;;22.90;43.18;97378.47;5971628;23;20069;-81
2023/07/13 06:47:11;;;;;;;1.73;1.30;;;;;;;23.02;43.15;97388.41;5967746;23;19995;-81
2023/07/13 06:49:36;;;;;;;1.90;1.20;;;;;;;23.37;43.46;97381.81;6069232;23;20006;-81
2023/07/13 06:52:02;;;;;;;1.73;1.20;;;;;;;23.54;41.69;97383.59;6083880;23;20017;-81
2023/07/13 06:54:27;;;;;;;2.00;1.40;;;;;;;23.70;40.19;97383.78;5933493;23;20007;-81
2023/07/13 06:56:53;;;;;;;1.65;1.38;;;;;;;23.52;40.44;97383.09;5989771;23;20007;-81
2023/07/13 06:59:19;;;;;;;1.08;1.08;;;;;;;23.30;40.96;97365.59;6050294;23;20023;-81
2023/07/13 07:01:44;;;;;;;1.42;1.33;;;;;;;23.37;41.45;97375.72;6090678;23;20557;-81
2023/07/13 07:04:09;;;;;;;2.05;1.30;;;;;;;23.53;40.85;97382.03;6071350;23;20518;-82
2023/07/13 07:06:35;;;;;;;2.65;1.17;;;;;;;23.86;40.22;97386.63;5932409;23;20327;-82
2023/07/13 07:09:00;;;;;;;1.83;1.23;;;;;;;23.68;40.95;97383.31;5925346;23;20326;-81
2023/07/13 07:11:26;;;;;;;2.70;1.40;;;;;;;23.81;40.37;97392.16;6052818;23;20054;-81
2023/07/13 07:13:52;;;;;;;1.83;1.02;;;;;;;23.82;40.06;97395.56;6054024;23;20211;-81
2023/07/13 07:16:19;;;;;;;2.25;1.17;;;;;;;24.10;39.60;97412.53;6025611;23;20112;-82
2023/07/13 07:18:45;;;;;;;1.73;1.05;;;;;;;24.24;38.91;97416.81;6045523;23;20089;-82
2023/07/13 07:21:11;;;;;;;1.88;1.02;;;;;;;24.01;39.61;97414.53;6049896;23;20247;-81
2023/07/13 07:23:36;;;;;;;1.88;1.15;;;;;;;24.23;39.23;97410.72;6010294;23;20187;-82
2023/07/13 07:26:02;;;;;;;4.47;1.95;;;;;;;24.04;39.43;97416.53;6008791;23;20243;-82
2023/07/13 07:28:28;;;;;;;1.98;1.25;;;;;;;24.03;40.64;97406.97;6042349;23;20259;-82
2023/07/13 07:30:55;;;;;;;2.40;1.30;;;;;;;24.08;40.08;97422.75;6034436;23;20140;-81
2023/07/13 07:33:21;;;;;;;2.83;1.63;;;;;;;24.29;40.02;97403.31;6040724;23;20149;-81
2023/07/13 07:35:46;;;;;;;3.17;1.25;;;;;;;24.57;38.80;97402.72;6029761;23;20224;-81
2023/07/13 07:38:12;;;;;;;3.05;1.30;;;;;;;24.82;38.58;97398.97;6023842;23;20199;-81
2023/07/13 07:40:38;;;;;;;2.60;1.52;;;;;;;24.99;38.43;97407.88;6042996;23;20149;-81
2023/07/13 07:43:03;;;;;;;2.63;1.17;;;;;;;24.82;38.17;97419.53;6041713;23;20085;-82
2023/07/13 07:45:29;;;;;;;1.30;0.98;;;;;;;25.13;35.78;97413.63;6012101;23;20203;-81
2023/07/13 07:47:58;;;;;;;1.30;1.00;;;;;;;25.23;37.31;97413.19;6064358;23;21048;-80
2023/07/13 07:50:24;;;;;;;2.55;1.20;;;;;;;25.56;36.92;97412.28;6050301;23;20225;-81
2023/07/13 07:52:50;;;;;;;2.25;1.30;;;;;;;25.69;35.04;97409.59;6088373;23;20250;-80
2023/07/13 07:55:16;;;;;;;2.63;1.33;;;;;;;25.71;34.70;97412.69;6058106;23;20248;-80
2023/07/13 07:57:41;;;;;;;2.83;1.30;;;;;;;25.73;35.83;97424.56;6031902;23;20114;-80
2023/07/13 08:00:07;;;;;;;1.60;0.95;;;;;;;25.73;36.58;97423.81;6059480;23;20180;-80
2023/07/13 08:02:32;;;;;;;1.77;1.30;;;;;;;25.83;36.68;97418.00;6035191;23;20088;-82
2023/07/13 08:04:58;;;;;;;2.45;1.20;;;;;;;25.77;35.54;97419.34;6059622;23;20180;-82
2023/07/13 08:07:23;;;;;;;3.15;1.42;;;;;;;25.72;34.55;97414.22;5919671;23;20267;-82
2023/07/13 08:09:52;;;;;;;1.67;1.05;;;;;;;25.56;35.21;97406.16;5922037;23;20235;-82
2023/07/13 08:12:17;;;;;;;2.03;1.20;;;;;;;25.33;36.57;97403.22;6027705;23;20210;-82
2023/07/13 08:14:43;;;;;;;2.72;1.30;;;;;;;25.31;35.78;97408.09;6022602;23;20174;-82
2023/07/13 08:17:08;;;;;;;1.63;1.30;;;;;;;25.23;37.19;97417.75;6019142;23;20196;-81
2023/07/13 08:19:34;;;;;;;3.17;1.13;;;;;;;25.13;37.97;97412.88;6052426;23;20259;-82
2023/07/13 08:21:59;;;;;;;2.83;1.25;;;;;;;25.09;37.82;97406.63;5959617;23;20187;-82
2023/07/13 08:24:24;;;;;;;3.40;1.20;;;;;;;25.12;37.01;97411.31;6060821;23;20604;-81
2023/07/13 08:26:51;;;;;;;3.97;1.70;;;;;;;25.20;37.48;97419.19;6022377;23;20148;-80
2023/07/13 08:29:16;;;;;;;2.75;1.33;;;;;;;25.27;36.65;97418.66;5924825;23;20251;-83
2023/07/13 08:31:42;;;;;;;2.00;1.67;;;;;;;25.32;36.30;97415.75;6025566;23;20585;-81
2023/07/13 08:34:07;;;;;;;2.83;1.33;;;;;;;25.46;36.39;97411.97;6025004;23;20231;-81
2023/07/13 08:36:33;;;;;;;2.33;1.80;;;;;;;25.64;36.35;97407.16;6058412;23;20153;-81
2023/07/13 08:41:28;;;;;;;2.13;1.17;;;;;;;26.28;35.07;97400.91;6100297;23;20229;-83
2023/07/13 08:46:35;;;;;;;2.90;1.42;;;;;;;26.33;34.29;97402.56;5982320;23;20649;-86
2023/07/13 08:49:06;;;;;;;2.53;1.10;;;;;;;26.19;34.06;97386.97;6047065;23;20061;-82
2023/07/13 08:51:37;;;;;;;2.92;1.20;;;;;;;26.04;34.52;97396.47;6086889;23;20145;-81
2023/07/13 08:54:05;;;;;;;2.08;1.20;;;;;;;25.95;34.98;97388.63;6054026;23;20191;-83
2023/07/13 08:56:32;;;;;;;5.15;1.58;;;;;;;25.91;36.13;97401.06;6086658;23;20171;-84
2023/07/13 08:59:06;;;;;;;1.23;1.13;;;;;;;25.68;37.05;97373.38;6013800;23;20178;-82
2023/07/13 09:01:57;;;;;;;1.38;1.17;;;;;;;26.01;36.28;97407.06;5971312;23;20275;-82
2023/07/13 09:04:30;;;;;;;3.17;1.48;;;;;;;25.89;36.25;97400.63;5977903;23;20429;-85
2023/07/13 09:07:17;;;;;;;3.78;1.42;;;;;;;25.89;37.37;97416.66;5878664;24;20138;-84
2023/07/13 09:10:09;;;;;;;2.47;1.00;;;;;;;26.07;35.35;97411.81;5896958;24;20189;-84
2023/07/13 09:12:43;;;;;;;1.55;1.30;;;;;;;26.26;35.35;97415.75;5874634;24;20146;-83
2023/07/13 09:15:31;;;;;;;2.25;1.17;;;;;;;26.34;34.98;97410.25;5891932;23;20194;-83
2023/07/13 09:18:01;;;;;;;3.25;1.30;;;;;;;26.66;35.69;97412.97;5877294;24;20070;-83
2023/07/13 09:20:31;;;;;;;1.40;1.15;;;;;;;26.88;35.24;97410.81;5894568;24;20213;-84
2023/07/13 09:23:02;;;;;;;2.83;1.40;;;;;;;27.27;34.48;97401.00;5905931;23;20353;-83
2023/07/13 09:25:35;;;;;;;3.63;1.40;;;;;;;27.32;34.09;97400.00;5862279;24;20664;-84
2023/07/13 09:28:15;;;;;;;1.63;1.00;;;;;;;27.87;31.95;97407.25;5891126;23;20181;-85
2023/07/13 09:30:53;;;;;;;2.80;1.73;;;;;;;27.70;33.07;97403.84;5891098;24;20146;-82
2023/07/13 09:33:19;;;;;;;2.55;1.40;;;;;;;27.68;32.63;97403.44;5884146;24;20264;-82
2023/07/13 09:35:45;;;;;;;1.90;1.08;;;;;;;27.24;31.46;97396.34;5903268;23;20409;-83
2023/07/13 09:38:16;;;;;;;3.42;1.60;;;;;;;27.18;32.14;97403.13;5905606;23;20188;-84
2023/07/13 09:41:00;;;;;;;2.35;0.93;;;;;;;27.13;32.25;97410.59;5883698;24;20231;-82
2023/07/13 09:43:28;;;;;;;4.10;1.20;;;;;;;26.99;30.66;97411.06;5894919;24;20083;-82
2023/07/13 09:45:54;;;;;;;2.72;1.35;;;;;;;26.79;31.39;97423.59;5885031;24;20184;-84
2023/07/13 09:48:20;;;;;;;2.08;1.15;;;;;;;26.44;33.68;97413.53;5893914;23;20016;-82
2023/07/13 09:50:46;;;;;;;2.15;0.93;;;;;;;26.39;33.81;97421.78;5893295;23;20613;-83
2023/07/13 09:53:17;;;;;;;2.47;1.40;;;;;;;26.84;33.47;97417.97;5889460;23;20169;-84
2023/07/13 09:55:44;;;;;;;2.45;1.00;;;;;;;26.99;32.22;97403.84;5882855;24;20154;-82
2023/07/13 09:58:12;;;;;;;2.00;1.20;;;;;;;27.15;30.72;97417.16;5884719;23;20168;-84
2023/07/13 10:00:40;;;;;;;2.08;1.20;;;;;;;26.87;32.11;97415.38;5880635;24;20353;-84
2023/07/13 10:03:09;;;;;;;1.20;1.10;;;;;;;27.07;30.63;97413.53;5892216;24;20261;-82
2023/07/13 10:05:43;;;;;;;1.35;1.00;;;;;;;27.45;30.28;97414.81;5885202;24;20064;-84
2023/07/13 10:08:30;;;;;;;2.60;1.33;;;;;;;27.55;31.15;97418.06;5891452;24;20340;-83
2023/07/13 10:11:02;;;;;;;2.38;1.10;;;;;;;27.78;29.41;97418.94;6009052;23;20316;-85
2023/07/13 10:13:39;;;;;;;2.05;1.00;;;;;;;28.02;29.15;97417.88;5889187;24;20430;-85
2023/07/13 10:16:06;;;;;;;2.05;1.20;;;;;;;28.29;29.19;97409.19;5892953;24;20088;-85
2023/07/13 10:18:39;;;;;;;2.28;1.02;;;;;;;28.46;28.16;97416.75;5887355;24;20268;-85
2023/07/13 10:21:14;;;;;;;2.25;1.17;;;;;;;28.55;27.96;97421.94;5910017;23;20201;-84
2023/07/13 10:23:39;;;;;;;;;;;;;;;28.48;28.85;97417.19;5910890;23;20382;-81
2023/07/13 10:26:12;;;;;;;1.70;1.10;;;;;;;28.59;29.32;97401.31;6012704;23;20337;-84
2023/07/13 10:28:38;;;;;;;1.48;0.80;;;;;;;28.73;30.53;97406.13;5910458;23;20322;-85
2023/07/13 10:31:10;;;;;;;4.57;1.50;;;;;;;28.80;27.61;97411.59;5892272;24;20174;-84
2023/07/13 10:33:35;;;;;;;1.35;0.90;;;;;;;28.60;27.58;97410.13;5884228;24;20505;-83
2023/07/13 10:36:12;;;;;;;2.17;1.10;;;;;;;28.09;28.86;97369.06;5978426;23;20173;-86
2023/07/13 10:38:39;;;;;;;1.30;1.20;;;;;;;28.47;28.94;97412.19;6018611;23;20175;-83
2023/07/13 10:41:09;;;;;;;2.22;1.33;;;;;;;28.61;29.81;97417.81;6072832;23;20197;-83
2023/07/13 10:43:40;;;;;;;1.50;0.95;;;;;;;28.74;28.99;97413.06;6056865;23;20337;-84
2023/07/13 10:46:09;;;;;;;1.75;1.10;;;;;;;28.69;27.99;97422.16;6023861;23;20081;-85
2023/07/13 10:48:36;;;;;;;2.88;1.23;;;;;;;28.87;28.49;97411.72;6055956;23;20262;-82
2023/07/13 10:51:04;;;;;;;1.88;1.40;;;;;;;28.92;27.02;97419.44;6020977;23;20327;-84
2023/07/13 10:53:33;;;;;;;1.42;1.02;;;;;;;28.69;30.37;97416.81;6074147;23;20137;-84
2023/07/13 10:56:05;;;;;;;2.40;1.10;;;;;;;28.37;29.01;97410.88;6056386;23;20317;-83
2023/07/13 10:58:34;;;;;;;2.15;1.42;;;;;;;27.68;29.51;97400.75;6031122;23;20304;-85
2023/07/13 11:01:03;;;;;;;1.58;1.10;;;;;;;27.41;30.24;97426.53;6035984;23;20323;-85
2023/07/13 11:03:31;;;;;;;2.08;1.48;;;;;;;27.18;30.37;97419.16;6049710;23;20276;-84
2023/07/13 11:06:22;;;;;;;2.58;1.50;;;;;;;27.01;31.58;97424.88;6047588;23;20196;-86
2023/07/13 11:08:47;;;;;;;5.07;1.55;;;;;;;26.81;31.02;97434.69;6047024;23;20363;-83
2023/07/13 11:11:27;;;;;;;2.28;1.30;;;;;;;26.87;31.54;97433.28;5925854;23;20138;-84
2023/07/13 11:13:53;;;;;;;1.83;1.40;;;;;;;27.24;31.97;97423.09;6073379;23;20142;-83
2023/07/13 11:16:24;;;;;;;3.10;1.55;;;;;;;27.32;30.78;97424.06;6039709;23;20279;-84
2023/07/13 11:18:52;;;;;;;2.22;1.10;;;;;;;27.23;32.14;97404.72;6079241;23;20343;-83
2023/07/13 11:21:20;;;;;;;3.25;1.20;;;;;;;26.94;32.07;97401.44;6078990;23;20279;-83
2023/07/13 11:23:53;;;;;;;1.40;1.30;;;;;;;26.76;32.30;97418.91;6038586;23;20193;-86
2023/07/13 11:26:41;;;;;;;1.67;1.25;;;;;;;26.81;31.08;97418.66;6045376;23;20188;-86
2023/07/13 11:29:31;;;;;;;1.60;1.45;;;;;;;26.42;32.42;97418.44;6016284;23;20080;-83
2023/07/13 11:31:59;;;;;;;2.25;1.10;;;;;;;26.27;31.57;97415.41;6015926;23;20208;-83
2023/07/13 11:34:35;;;;;;;1.63;1.40;;;;;;;26.42;31.58;97410.41;6036293;23;20248;-85
2023/07/13 11:37:01;;;;;;;3.40;1.20;;;;;;;26.74;31.64;97421.16;6020476;23;20356;-84
2023/07/13 11:39:31;;;;;;;4.55;1.35;;;;;;;26.82;31.32;97422.88;6043214;23;20242;-86
2023/07/13 11:42:00;;;;;;;3.58;1.60;;;;;;;26.71;31.26;97418.03;6041354;23;20162;-85
2023/07/13 11:44:27;;;;;;;2.35;1.38;;;;;;;26.50;32.76;97415.59;5999155;23;20322;-85